createdAt,value
2019-05-13T00:01:20.580Z,12.25
2019-05-13T00:03:47.155Z,12.27
2019-05-13T00:06:13.772Z,12.26
2019-05-13T00:08:40.345Z,12.27
2019-05-13T00:11:06.962Z,12.26
2019-05-13T00:13:33.871Z,12.27
2019-05-13T00:16:00.517Z,12.27
2019-05-13T00:18:27.094Z,12.30
2019-05-13T00:20:54.313Z,12.32
2019-05-13T00:23:23.238Z,12.33
2019-05-13T00:25:49.383Z,12.36
2019-05-13T00:28:15.957Z,12.37
2019-05-13T00:30:44.457Z,12.38
2019-05-13T00:33:10.854Z,12.40
2019-05-13T00:35:37.475Z,12.42
2019-05-13T00:38:04.207Z,12.42
2019-05-13T00:40:33.429Z,12.44
2019-05-13T00:42:59.224Z,12.46
2019-05-13T00:45:25.818Z,12.48
2019-05-13T00:47:53.650Z,12.49
2019-05-13T00:50:20.485Z,12.52
2019-05-13T00:52:47.064Z,12.54
2019-05-13T00:55:14.813Z,12.57
2019-05-13T00:57:43.643Z,12.58
2019-05-13T01:00:09.961Z,12.62
2019-05-13T01:02:36.540Z,12.65
2019-05-13T01:05:04.290Z,12.67
2019-05-13T01:07:31.106Z,12.69
2019-05-13T01:09:57.706Z,12.70
2019-05-13T01:12:24.277Z,12.70
2019-05-13T01:14:50.849Z,12.69
2019-05-13T01:17:17.448Z,12.70
2019-05-13T01:19:44.021Z,12.69
2019-05-13T01:22:10.631Z,12.67
2019-05-13T01:24:37.225Z,12.64
2019-05-13T01:27:04.321Z,12.63
2019-05-13T01:29:30.998Z,12.61
2019-05-13T01:31:57.606Z,12.59
2019-05-13T01:34:24.172Z,12.57
2019-05-13T01:36:50.802Z,12.56
2019-05-13T01:39:17.385Z,12.53
2019-05-13T01:41:44.049Z,12.51
2019-05-13T01:44:10.650Z,12.47
2019-05-13T01:46:37.261Z,12.46
2019-05-13T01:49:04.950Z,12.44
2019-05-13T01:51:33.399Z,12.44
2019-05-13T01:54:00.185Z,12.42
2019-05-13T01:56:26.798Z,12.41
2019-05-13T01:58:54.149Z,12.41
2019-05-13T02:01:20.860Z,12.42
2019-05-13T02:03:47.423Z,12.43
2019-05-13T02:06:14.284Z,12.42
2019-05-13T02:08:40.904Z,12.40
2019-05-13T02:11:07.523Z,12.37
2019-05-13T02:13:34.635Z,12.35
2019-05-13T02:16:03.889Z,12.33
2019-05-13T02:18:29.731Z,12.31
2019-05-13T02:20:56.345Z,12.30
2019-05-13T02:23:23.875Z,12.26
2019-05-13T02:25:50.827Z,12.24
2019-05-13T02:28:17.404Z,12.25
2019-05-13T02:30:45.501Z,12.24
2019-05-13T02:33:13.412Z,12.23
2019-05-13T02:35:43.110Z,12.21
2019-05-13T02:38:19.646Z,12.19
2019-05-13T02:40:36.779Z,12.18
2019-05-13T02:43:03.398Z,12.18
2019-05-13T02:45:33.004Z,12.18
2019-05-13T02:47:58.308Z,12.18
2019-05-13T02:50:24.879Z,12.18
2019-05-13T02:52:53.114Z,12.18
2019-05-13T02:55:22.338Z,12.18
2019-05-13T02:57:48.294Z,12.19
2019-05-13T03:00:14.932Z,12.19
2019-05-13T03:02:43.969Z,12.18
2019-05-13T03:05:13.221Z,12.15
2019-05-13T03:07:38.177Z,12.15
2019-05-13T03:10:04.796Z,12.13
2019-05-13T03:12:32.241Z,12.14
2019-05-13T03:15:02.479Z,12.13
2019-05-13T03:17:27.425Z,12.14
2019-05-13T03:19:54.001Z,12.12
2019-05-13T03:22:22.431Z,12.11
2019-05-13T03:24:52.100Z,12.11
2019-05-13T03:27:20.211Z,12.12
2019-05-13T03:29:45.573Z,12.13
2019-05-13T03:32:16.405Z,12.11
2019-05-13T03:34:45.396Z,12.12
2019-05-13T03:37:14.705Z,12.11
2019-05-13T03:39:37.143Z,12.12
2019-05-13T03:42:03.761Z,12.11
2019-05-13T03:44:32.502Z,12.10
2019-05-13T03:46:58.649Z,12.09
2019-05-13T03:49:25.225Z,12.06
2019-05-13T03:51:53.453Z,12.03
2019-05-13T03:54:22.742Z,12.00
2019-05-13T03:56:48.522Z,11.97
2019-05-13T03:59:15.107Z,11.93
2019-05-13T04:01:42.738Z,11.93
2019-05-13T04:04:12.494Z,11.94
2019-05-13T04:06:37.876Z,11.97
2019-05-13T04:09:20.891Z,11.98
2019-05-13T04:11:33.219Z,11.98
2019-05-13T04:14:02.930Z,12.00
2019-05-13T04:16:28.211Z,12.02
2019-05-13T04:18:54.831Z,12.02
2019-05-13T04:21:22.787Z,12.03
2019-05-13T04:23:52.794Z,12.04
2019-05-13T04:26:17.984Z,12.05
2019-05-13T04:28:44.595Z,12.04
2019-05-13T04:31:14.035Z,12.02
2019-05-13T04:33:42.403Z,12.02
2019-05-13T04:36:07.803Z,11.97
2019-05-13T04:38:34.426Z,11.94
2019-05-13T04:41:03.452Z,11.92
2019-05-13T04:43:33.814Z,11.88
2019-05-13T04:45:57.614Z,11.85
2019-05-13T04:48:24.271Z,11.84
2019-05-13T04:50:53.250Z,11.84
2019-05-13T04:53:22.379Z,11.83
2019-05-13T04:55:47.480Z,11.82
2019-05-13T04:58:14.100Z,11.82
2019-05-13T05:00:42.630Z,11.84
2019-05-13T05:03:09.008Z,11.85
2019-05-13T05:05:35.645Z,11.88
2019-05-13T05:08:03.126Z,11.90
2019-05-13T05:10:38.139Z,11.92
2019-05-13T05:12:58.319Z,11.95
2019-05-13T05:15:24.962Z,11.96
2019-05-13T05:17:52.184Z,11.98
2019-05-13T05:20:19.018Z,12.00
2019-05-13T05:22:45.589Z,12.01
2019-05-13T05:25:12.204Z,12.02
2019-05-13T05:27:38.784Z,12.01
2019-05-13T05:30:05.398Z,12.02
2019-05-13T05:32:35.500Z,12.02
2019-05-13T05:35:01.189Z,12.03
2019-05-13T05:37:27.972Z,12.05
2019-05-13T05:39:54.588Z,12.08
2019-05-13T05:42:21.705Z,12.11
2019-05-13T05:44:48.428Z,12.13
2019-05-13T05:47:15.014Z,12.16
2019-05-13T05:49:41.598Z,12.17
2019-05-13T05:52:08.318Z,12.19
2019-05-13T05:54:34.888Z,12.19
2019-05-13T05:57:01.496Z,12.21
2019-05-13T05:59:28.071Z,12.20
2019-05-13T06:01:54.682Z,12.20
2019-05-13T06:04:22.089Z,12.22
2019-05-13T06:06:48.937Z,12.23
2019-05-13T06:09:15.516Z,12.24
2019-05-13T06:11:42.131Z,12.25
2019-05-13T06:14:11.122Z,12.26
2019-05-13T06:16:37.023Z,12.27
2019-05-13T06:19:12.085Z,12.28
2019-05-13T06:21:38.942Z,12.29
2019-05-13T06:24:05.591Z,12.32
2019-05-13T06:26:32.211Z,12.32
2019-05-13T06:28:58.804Z,12.33
2019-05-13T06:31:25.399Z,12.34
2019-05-13T06:33:52.094Z,12.35
2019-05-13T06:36:18.698Z,12.38
2019-05-13T06:38:45.277Z,12.38
2019-05-13T06:41:14.590Z,12.40
2019-05-13T06:43:41.852Z,12.41
2019-05-13T06:46:08.581Z,12.43
2019-05-13T06:48:35.162Z,12.44
2019-05-13T06:51:02.585Z,12.44
2019-05-13T06:53:29.336Z,12.44
2019-05-13T06:55:55.961Z,12.45
2019-05-13T06:58:22.543Z,12.46
2019-05-13T07:00:51.550Z,12.47
2019-05-13T07:03:17.444Z,12.47
2019-05-13T07:05:44.032Z,12.49
2019-05-13T07:08:11.972Z,12.50
2019-05-13T07:10:41.269Z,12.52
2019-05-13T07:13:07.286Z,12.53
2019-05-13T07:15:33.933Z,12.54
2019-05-13T07:18:02.291Z,12.55
2019-05-13T07:20:28.816Z,12.55
2019-05-13T07:22:55.423Z,12.54
2019-05-13T07:25:22.314Z,12.52
2019-05-13T07:27:51.467Z,12.49
2019-05-13T07:30:17.536Z,12.49
2019-05-13T07:32:44.135Z,12.48
2019-05-13T07:35:14.124Z,12.49
2019-05-13T07:37:39.037Z,12.50
2019-05-13T07:40:05.665Z,12.51
2019-05-13T07:42:32.296Z,12.52
2019-05-13T07:45:01.914Z,12.53
2019-05-13T07:47:28.512Z,12.54
2019-05-13T07:49:55.185Z,12.56
2019-05-13T07:52:22.746Z,12.57
2019-05-13T07:54:51.897Z,12.58
2019-05-13T07:57:17.960Z,12.58
2019-05-13T07:59:44.552Z,12.57
2019-05-13T08:02:12.430Z,12.56
2019-05-13T08:04:41.922Z,12.56
2019-05-13T08:07:07.599Z,12.54
2019-05-13T08:09:34.196Z,12.53
2019-05-13T08:12:10.653Z,12.51
2019-05-13T08:14:34.267Z,12.50
2019-05-13T08:17:02.543Z,12.51
2019-05-13T08:19:29.249Z,12.49
2019-05-13T08:21:55.846Z,12.50
2019-05-13T08:24:22.786Z,12.50
2019-05-13T08:26:53.163Z,12.49
2019-05-13T08:29:21.640Z,12.47
2019-05-13T08:31:48.486Z,12.46
2019-05-13T08:34:15.123Z,12.46
2019-05-13T08:36:42.657Z,12.45
2019-05-13T08:39:09.472Z,12.46
2019-05-13T08:41:36.098Z,12.46
2019-05-13T08:44:02.667Z,12.47
2019-05-13T08:46:29.276Z,12.50
2019-05-13T08:48:55.857Z,12.50
2019-05-13T08:51:22.476Z,12.51
2019-05-13T08:53:51.518Z,12.52
2019-05-13T08:56:17.427Z,12.51
2019-05-13T08:58:44.018Z,12.52
2019-05-13T09:01:12.381Z,12.51
2019-05-13T09:03:41.526Z,12.51
2019-05-13T09:06:07.335Z,12.51
2019-05-13T09:08:34.008Z,12.51
2019-05-13T09:13:28.975Z,12.51
2019-05-13T09:15:55.555Z,12.54
2019-05-13T09:18:22.943Z,12.54
2019-05-13T09:20:51.869Z,12.57
2019-05-13T09:23:17.987Z,12.57
2019-05-13T09:25:44.615Z,12.58
2019-05-13T09:28:12.495Z,12.59
2019-05-13T09:30:39.213Z,12.59
2019-05-13T09:33:05.820Z,12.58
2019-05-13T09:35:32.400Z,12.57
2019-05-13T09:37:59.090Z,12.56
2019-05-13T09:40:25.773Z,12.57
2019-05-13T09:42:55.311Z,12.58
2019-05-13T09:45:21.716Z,12.58
2019-05-13T09:47:48.352Z,12.59
2019-05-13T09:50:28.574Z,12.59
2019-05-13T09:52:43.271Z,12.59
2019-05-13T09:55:24.811Z,12.59
2019-05-13T09:57:38.180Z,12.60
2019-05-13T10:00:04.757Z,12.61
2019-05-13T10:02:32.042Z,12.61
2019-05-13T10:05:02.453Z,12.65
2019-05-13T10:07:28.302Z,12.66
2019-05-13T10:09:54.947Z,12.66
2019-05-13T10:12:24.270Z,12.67
2019-05-13T10:14:49.867Z,12.67
2019-05-13T10:17:16.494Z,12.67
2019-05-13T10:19:43.106Z,12.69
2019-05-13T10:22:11.878Z,12.68
2019-05-13T10:24:38.057Z,12.69
2019-05-13T10:27:04.680Z,12.69
2019-05-13T10:29:32.071Z,12.65
2019-05-13T10:31:59.043Z,12.60
2019-05-13T10:34:25.707Z,12.57
2019-05-13T10:36:52.528Z,12.56
2019-05-13T10:39:19.137Z,12.55
2019-05-13T10:44:31.218Z,12.51
2019-05-13T10:46:57.827Z,12.47
2019-05-13T10:49:24.482Z,12.48
2019-05-13T10:51:52.649Z,12.49
2019-05-13T10:54:21.527Z,12.50
2019-05-13T10:56:47.685Z,12.53
2019-05-13T10:59:15.298Z,12.55
2019-05-13T11:01:42.775Z,12.58
2019-05-13T11:04:13.370Z,12.61
2019-05-13T11:06:37.849Z,12.65
2019-05-13T11:09:04.644Z,12.69
2019-05-13T11:11:32.955Z,12.71
2019-05-13T11:14:10.023Z,12.75
2019-05-13T11:16:27.904Z,12.79
2019-05-13T11:18:55.455Z,12.83
2019-05-13T11:21:22.418Z,12.86
2019-05-13T11:23:49.572Z,12.91
2019-05-13T11:26:17.434Z,12.96
2019-05-13T11:28:44.022Z,13.01
2019-05-13T11:31:10.593Z,13.06
2019-05-13T11:33:37.215Z,13.11
2019-05-13T11:36:03.818Z,13.19
2019-05-13T11:38:32.621Z,13.28
2019-05-13T11:40:58.753Z,13.39
2019-05-13T11:43:28.472Z,13.47
2019-05-13T11:45:53.652Z,13.55
2019-05-13T11:48:23.199Z,13.62
2019-05-13T11:50:50.427Z,13.69
2019-05-13T11:53:31.677Z,13.75
2019-05-13T11:55:45.201Z,13.82
2019-05-13T11:58:13.901Z,13.87
2019-05-13T12:00:42.572Z,13.91
2019-05-13T12:03:08.564Z,13.96
2019-05-13T12:05:35.232Z,14.02
2019-05-13T12:08:01.823Z,14.06
2019-05-13T12:10:28.402Z,14.09
2019-05-13T12:12:54.987Z,14.12
2019-05-13T12:15:32.815Z,14.15
2019-05-13T12:17:52.359Z,14.18
2019-05-13T12:20:18.205Z,14.21
2019-05-13T12:22:45.060Z,14.23
2019-05-13T12:25:13.835Z,14.25
2019-05-13T12:27:41.904Z,14.29
2019-05-13T12:30:08.309Z,14.34
2019-05-13T12:32:34.979Z,14.39
2019-05-13T12:35:03.571Z,14.44
2019-05-13T12:37:30.149Z,14.49
2019-05-13T12:39:58.260Z,14.53
2019-05-13T12:42:24.837Z,14.55
2019-05-13T12:45:04.579Z,14.58
2019-05-13T12:47:22.099Z,14.62
2019-05-13T12:49:48.088Z,14.64
2019-05-13T12:52:14.682Z,14.64
2019-05-13T12:54:43.710Z,14.66
2019-05-13T12:57:13.167Z,14.67
2019-05-13T12:59:37.963Z,14.65
2019-05-13T13:02:04.533Z,14.65
2019-05-13T13:04:33.479Z,14.64
2019-05-13T13:06:59.448Z,14.65
2019-05-13T13:09:26.041Z,14.69
2019-05-13T13:11:54.420Z,14.73
2019-05-13T13:14:20.957Z,14.76
2019-05-13T13:16:47.719Z,14.81
2019-05-13T13:19:15.222Z,14.87
2019-05-13T13:21:41.889Z,14.97
2019-05-13T13:24:08.889Z,15.07
2019-05-13T13:26:35.465Z,15.19
2019-05-13T13:29:02.088Z,15.32
2019-05-13T13:31:28.780Z,15.46
2019-05-13T13:33:55.996Z,15.67
2019-05-13T13:36:24.151Z,15.88
2019-05-13T13:38:56.041Z,16.06
2019-05-13T13:41:22.654Z,16.18
2019-05-13T13:43:47.797Z,16.28
2019-05-13T13:46:31.672Z,16.38
2019-05-13T13:48:44.015Z,16.48
2019-05-13T13:51:14.013Z,16.56
2019-05-13T13:53:43.845Z,16.59
2019-05-13T13:56:07.981Z,16.61
2019-05-13T13:58:34.599Z,16.61
2019-05-13T14:01:11.198Z,16.60
2019-05-13T14:03:32.939Z,16.59
2019-05-13T14:05:57.869Z,16.59
2019-05-13T14:06:25.037Z,12.51
2019-05-13T14:08:24.576Z,16.57
2019-05-13T14:10:51.797Z,16.54
2019-05-13T14:13:18.385Z,16.49
2019-05-13T14:15:44.993Z,16.44
2019-05-13T14:18:11.584Z,16.40
2019-05-13T14:20:38.214Z,16.36
2019-05-13T14:23:04.781Z,16.30
2019-05-13T14:25:32.465Z,16.26
2019-05-13T14:27:59.283Z,16.24
2019-05-13T14:30:25.890Z,16.20
2019-05-13T14:32:52.546Z,16.15
2019-05-13T14:35:21.822Z,16.10
2019-05-13T14:37:51.713Z,16.05
2019-05-13T14:40:17.806Z,16.03
2019-05-13T14:42:44.453Z,15.99
2019-05-13T14:45:12.134Z,15.97
2019-05-13T14:47:41.006Z,15.93
2019-05-13T14:50:07.343Z,15.86
2019-05-13T14:52:33.914Z,15.77
2019-05-13T14:55:02.195Z,15.69
2019-05-13T14:57:28.806Z,15.61
2019-05-13T14:59:55.404Z,15.52
2019-05-13T15:02:22.343Z,15.44
2019-05-13T15:04:48.960Z,15.39
2019-05-13T15:07:15.540Z,15.33
2019-05-13T15:09:42.331Z,15.30
2019-05-13T15:12:08.910Z,15.27
2019-05-13T15:14:35.518Z,15.25
2019-05-13T15:17:06.367Z,15.23
2019-05-13T15:19:31.724Z,15.20
2019-05-13T15:21:58.437Z,15.18
2019-05-13T15:24:25.221Z,15.14
2019-05-13T15:26:51.846Z,15.11
2019-05-13T15:29:18.487Z,15.08
2019-05-13T15:31:45.057Z,15.06
2019-05-13T15:34:11.662Z,15.04
2019-05-13T15:36:38.278Z,15.02
2019-05-13T15:39:04.885Z,15.00
2019-05-13T15:41:31.557Z,14.98
2019-05-13T15:43:58.151Z,14.96
2019-05-13T15:46:24.815Z,14.95
2019-05-13T15:48:51.644Z,14.91
2019-05-13T15:51:18.333Z,14.89
2019-05-13T15:53:44.940Z,14.86
2019-05-13T15:56:12.656Z,14.82
2019-05-13T15:58:41.484Z,14.78
2019-05-13T16:01:07.708Z,14.73
2019-05-13T16:03:34.282Z,14.69
2019-05-13T16:06:01.645Z,14.65
2019-05-13T16:08:28.460Z,14.62
2019-05-13T16:10:55.086Z,14.60
2019-05-13T16:13:22.287Z,14.57
2019-05-13T16:15:49.091Z,14.55
2019-05-13T16:18:16.027Z,14.53
2019-05-13T16:20:45.242Z,14.50
2019-05-13T16:23:12.374Z,14.47
2019-05-13T16:25:41.459Z,14.45
2019-05-13T16:28:07.452Z,14.41
2019-05-13T16:30:34.075Z,14.37
2019-05-13T16:33:02.898Z,14.34
2019-05-13T16:35:31.712Z,14.30
2019-05-13T16:37:57.353Z,14.27
2019-05-13T16:40:23.963Z,14.24
2019-05-13T16:42:51.908Z,14.22
2019-05-13T16:45:18.761Z,14.19
2019-05-13T16:47:56.726Z,14.16
2019-05-13T16:50:13.767Z,14.14
2019-05-13T16:52:41.770Z,14.11
2019-05-13T16:55:08.619Z,14.08
2019-05-13T16:57:35.201Z,14.05
2019-05-13T17:00:02.398Z,14.02
2019-05-13T17:02:29.396Z,14.00
2019-05-13T17:04:56.239Z,13.97
2019-05-13T17:07:27.165Z,13.96
2019-05-13T17:09:53.731Z,13.94
2019-05-13T17:12:21.318Z,13.91
2019-05-13T17:14:52.589Z,13.89
2019-05-13T17:17:19.301Z,13.87
2019-05-13T17:19:45.881Z,13.85
2019-05-13T17:22:13.969Z,13.83
2019-05-13T17:24:42.638Z,13.81
2019-05-13T17:27:08.906Z,13.79
2019-05-13T17:29:35.492Z,13.78
2019-05-13T17:32:02.590Z,13.76
2019-05-13T17:34:31.600Z,13.77
2019-05-13T17:36:59.022Z,13.74
2019-05-13T17:39:25.616Z,13.72
2019-05-13T17:41:52.334Z,13.72
2019-05-13T17:44:18.912Z,13.70
2019-05-13T17:46:45.528Z,13.73
2019-05-13T17:49:12.165Z,13.70
2019-05-13T17:51:38.825Z,13.69
2019-05-13T17:54:05.409Z,13.67
2019-05-13T17:56:32.359Z,13.64
2019-05-13T17:58:59.068Z,13.62
2019-05-13T18:01:25.665Z,13.60
2019-05-13T18:03:52.384Z,13.59
2019-05-13T18:06:18.999Z,13.56
2019-05-13T18:08:45.572Z,13.53
2019-05-13T18:11:12.213Z,13.51
2019-05-13T18:13:41.432Z,13.49
2019-05-13T18:16:07.319Z,13.46
2019-05-13T18:18:43.106Z,13.43
2019-05-13T18:21:02.244Z,13.40
2019-05-13T18:23:28.826Z,13.34
2019-05-13T18:25:55.503Z,13.29
2019-05-13T18:28:28.376Z,13.24
2019-05-13T18:30:51.492Z,13.20
2019-05-13T18:33:18.214Z,13.15
2019-05-13T18:35:44.837Z,13.11
2019-05-13T18:38:11.951Z,13.08
2019-05-13T18:40:38.719Z,13.04
2019-05-13T18:43:05.303Z,13.00
2019-05-13T18:45:31.872Z,12.96
2019-05-13T18:47:58.497Z,12.92
2019-05-13T18:50:25.067Z,12.90
2019-05-13T18:52:52.501Z,12.86
2019-05-13T18:55:19.267Z,12.83
2019-05-13T18:57:45.859Z,12.81
2019-05-13T19:00:12.444Z,12.78
2019-05-13T19:02:41.336Z,12.75
2019-05-13T19:05:07.349Z,12.72
2019-05-13T19:07:33.970Z,12.69
2019-05-13T19:10:02.549Z,12.65
2019-05-13T19:12:31.268Z,12.62
2019-05-13T19:14:58.412Z,12.59
2019-05-13T19:17:25.050Z,12.55
2019-05-13T19:19:53.424Z,12.52
2019-05-13T19:22:21.424Z,12.50
2019-05-13T19:24:48.077Z,12.48
2019-05-13T19:27:14.668Z,12.47
2019-05-13T19:29:42.502Z,12.43
2019-05-13T19:32:09.325Z,12.41
2019-05-13T19:34:35.904Z,12.38
2019-05-13T19:37:02.674Z,12.33
2019-05-13T19:39:31.190Z,12.29
2019-05-13T19:41:57.714Z,12.26
2019-05-13T19:44:24.288Z,12.20
2019-05-13T19:46:52.362Z,12.16
2019-05-13T19:49:29.624Z,12.12
2019-05-13T19:51:47.471Z,12.07
2019-05-13T19:54:14.047Z,12.04
2019-05-13T19:56:40.653Z,12.01
2019-05-13T19:59:07.220Z,11.98
2019-05-13T20:01:33.819Z,11.95
2019-05-13T20:04:02.342Z,11.93
2019-05-13T20:06:28.756Z,11.91
2019-05-13T20:08:55.338Z,11.87
2019-05-13T20:11:21.955Z,11.83
2019-05-13T20:13:48.514Z,11.80
2019-05-13T20:16:15.093Z,11.77
2019-05-13T20:18:41.702Z,11.73
2019-05-13T20:21:10.490Z,11.71
2019-05-13T20:23:36.627Z,11.67
2019-05-13T20:26:03.210Z,11.64
2019-05-13T20:28:31.732Z,11.61
2019-05-13T20:30:58.124Z,11.57
2019-05-13T20:33:24.818Z,11.54
2019-05-13T20:35:51.419Z,11.50
2019-05-13T20:38:18.084Z,11.49
2019-05-13T20:40:44.685Z,11.45
2019-05-13T20:43:11.997Z,11.43
2019-05-13T20:45:38.711Z,11.42
2019-05-13T20:48:05.315Z,11.39
2019-05-13T20:50:31.893Z,11.36
2019-05-13T20:52:58.527Z,11.32
2019-05-13T20:55:25.108Z,11.31
2019-05-13T20:57:53.058Z,11.28
2019-05-13T21:00:19.873Z,11.26
2019-05-13T21:02:46.475Z,11.24
2019-05-13T21:05:13.052Z,11.24
2019-05-13T21:07:41.725Z,11.23
2019-05-13T21:10:07.975Z,11.21
2019-05-13T21:12:34.584Z,11.20
2019-05-13T21:15:01.549Z,11.20
2019-05-13T21:17:28.349Z,11.18
2019-05-13T21:19:59.821Z,11.18
2019-05-13T21:22:23.261Z,11.17
2019-05-13T21:24:51.522Z,11.17
2019-05-13T21:27:18.333Z,11.17
2019-05-13T21:29:44.911Z,11.18
2019-05-13T21:32:11.902Z,11.17
2019-05-13T21:34:38.548Z,11.17
2019-05-13T21:37:05.169Z,11.16
2019-05-13T21:39:32.104Z,11.16
2019-05-13T21:41:58.820Z,11.15
2019-05-13T21:44:25.392Z,11.15
2019-05-13T21:46:51.968Z,11.15
2019-05-13T21:49:21.141Z,11.15
2019-05-13T21:51:46.872Z,11.14
2019-05-13T21:54:13.489Z,11.13
2019-05-13T21:56:42.409Z,11.12
2019-05-13T21:59:08.388Z,11.11
2019-05-13T22:01:34.962Z,11.11
2019-05-13T22:04:01.806Z,11.10
2019-05-13T22:06:28.419Z,11.09
2019-05-13T22:08:55.056Z,11.08
2019-05-13T22:11:22.239Z,11.08
2019-05-13T22:13:51.259Z,11.08
2019-05-13T22:16:17.305Z,11.08
2019-05-13T22:18:43.903Z,11.08
2019-05-13T22:21:11.830Z,11.08
2019-05-13T22:23:41.035Z,11.08
2019-05-13T22:26:06.982Z,11.08
2019-05-13T22:28:33.591Z,11.08
2019-05-13T22:31:01.304Z,11.07
2019-05-13T22:33:28.365Z,11.05
2019-05-13T22:35:54.937Z,11.03
2019-05-13T22:38:21.556Z,11.01
2019-05-13T22:40:48.146Z,10.98
2019-05-13T22:43:14.745Z,10.96
2019-05-13T22:45:41.937Z,10.95
2019-05-13T22:48:08.903Z,10.94
2019-05-13T22:50:35.474Z,10.92
2019-05-13T22:53:02.094Z,10.90
2019-05-13T22:55:28.668Z,10.89
2019-05-13T22:57:55.274Z,10.88
2019-05-13T23:00:22.444Z,10.88
2019-05-13T23:02:49.173Z,10.86
2019-05-13T23:05:15.741Z,10.84
2019-05-13T23:07:42.358Z,10.84
2019-05-13T23:10:08.983Z,10.82
2019-05-13T23:12:35.581Z,10.80
2019-05-13T23:15:02.162Z,10.78
2019-05-13T23:17:28.751Z,10.75
2019-05-13T23:19:55.338Z,10.75
2019-05-13T23:22:21.924Z,10.74
2019-05-13T23:24:48.530Z,10.72
2019-05-13T23:27:15.111Z,10.68
2019-05-13T23:29:41.708Z,10.66
2019-05-13T23:32:08.279Z,10.64
2019-05-13T23:34:34.878Z,10.61
2019-05-13T23:37:01.452Z,10.59
2019-05-13T23:39:28.136Z,10.58
2019-05-13T23:41:54.715Z,10.55
2019-05-13T23:44:27.136Z,10.53
2019-05-13T23:46:51.398Z,10.52
2019-05-13T23:49:18.140Z,10.51
2019-05-13T23:51:44.716Z,10.49
2019-05-13T23:54:12.226Z,10.51
2019-05-13T23:56:38.992Z,10.49
2019-05-13T23:59:05.593Z,10.51
